createdAt,value
2018-06-09T00:00:56.398Z,20.64
2018-06-09T00:03:25.051Z,20.53
2018-06-09T00:06:00.346Z,20.59
2018-06-09T00:08:29.016Z,20.51
2018-06-09T00:10:57.647Z,20.38
2018-06-09T00:13:26.311Z,20.32
2018-06-09T00:15:54.974Z,20.28
2018-06-09T00:18:23.583Z,20.22
2018-06-09T00:20:52.266Z,20.17
2018-06-09T00:23:20.928Z,20.18
2018-06-09T00:25:49.565Z,20.19
2018-06-09T00:28:18.305Z,20.10
2018-06-09T00:30:46.979Z,20.10
2018-06-09T00:33:15.682Z,20.11
2018-06-09T00:35:44.289Z,20.09
2018-06-09T00:38:12.996Z,20.07
2018-06-09T00:40:41.735Z,20.00
2018-06-09T00:43:10.384Z,19.97
2018-06-09T00:45:38.988Z,19.88
2018-06-09T00:48:07.632Z,19.84
2018-06-09T00:50:36.303Z,19.75
2018-06-09T00:53:05.028Z,19.71
2018-06-09T00:55:33.632Z,19.63
2018-06-09T00:58:02.272Z,19.56
2018-06-09T01:00:30.960Z,19.52
2018-06-09T01:02:59.618Z,19.44
2018-06-09T01:05:28.235Z,19.41
2018-06-09T01:07:56.869Z,19.35
2018-06-09T01:10:25.476Z,19.27
2018-06-09T01:12:54.129Z,19.26
2018-06-09T01:15:22.839Z,19.28
2018-06-09T01:17:51.537Z,19.20
2018-06-09T01:20:20.290Z,19.20
2018-06-09T01:22:48.950Z,19.26
2018-06-09T01:25:17.549Z,19.22
2018-06-09T01:27:46.195Z,19.25
2018-06-09T01:30:14.897Z,19.24
2018-06-09T01:32:43.546Z,19.39
2018-06-09T01:35:12.232Z,19.45
2018-06-09T01:37:40.839Z,19.38
2018-06-09T01:40:09.491Z,19.47
2018-06-09T01:42:38.133Z,19.50
2018-06-09T01:45:06.716Z,19.46
2018-06-09T01:47:35.335Z,19.40
2018-06-09T01:50:04.097Z,19.37
2018-06-09T01:52:32.768Z,19.55
2018-06-09T01:55:01.449Z,19.49
2018-06-09T01:57:30.171Z,19.38
2018-06-09T01:59:58.804Z,19.43
2018-06-09T02:02:28.046Z,19.56
2018-06-09T02:04:56.800Z,19.53
2018-06-09T02:07:25.437Z,19.43
2018-06-09T02:09:54.022Z,19.40
2018-06-09T02:12:22.658Z,19.36
2018-06-09T02:14:51.263Z,19.35
2018-06-09T02:17:19.878Z,19.29
2018-06-09T02:19:48.481Z,19.29
2018-06-09T02:22:17.081Z,19.30
2018-06-09T02:24:45.705Z,19.28
2018-06-09T02:27:14.341Z,19.29
2018-06-09T02:29:42.962Z,19.32
2018-06-09T02:32:11.634Z,19.29
2018-06-09T02:34:40.332Z,19.30
2018-06-09T02:37:08.986Z,19.26
2018-06-09T02:39:37.623Z,19.26
2018-06-09T02:42:06.273Z,19.20
2018-06-09T02:44:34.909Z,19.14
2018-06-09T02:47:03.747Z,19.08
2018-06-09T02:49:32.397Z,19.01
2018-06-09T02:52:01.063Z,18.93
2018-06-09T02:54:29.651Z,18.88
2018-06-09T02:56:58.323Z,18.76
2018-06-09T02:59:26.976Z,18.70
2018-06-09T03:01:55.608Z,18.67
2018-06-09T03:04:24.269Z,18.69
2018-06-09T03:06:52.891Z,18.70
2018-06-09T03:09:21.519Z,18.71
2018-06-09T03:11:50.176Z,18.77
2018-06-09T03:14:18.859Z,18.79
2018-06-09T03:16:47.557Z,18.69
2018-06-09T03:19:16.214Z,18.72
2018-06-09T03:21:44.806Z,18.68
2018-06-09T03:24:13.426Z,18.61
2018-06-09T03:26:42.088Z,18.52
2018-06-09T03:29:10.771Z,18.47
2018-06-09T03:31:39.394Z,18.55
2018-06-09T03:34:08.043Z,18.51
2018-06-09T03:36:36.714Z,18.56
2018-06-09T03:39:07.533Z,18.53
2018-06-09T03:41:36.405Z,18.53
2018-06-09T03:44:05.018Z,18.54
2018-06-09T03:46:33.648Z,18.55
2018-06-09T03:49:02.272Z,18.55
2018-06-09T03:51:30.934Z,18.56
2018-06-09T03:53:59.551Z,18.62
2018-06-09T03:56:28.157Z,18.63
2018-06-09T03:58:56.794Z,18.68
2018-06-09T04:01:25.520Z,18.75
2018-06-09T04:03:54.114Z,18.72
2018-06-09T04:06:22.722Z,18.73
2018-06-09T04:08:51.370Z,18.74
2018-06-09T04:11:19.959Z,18.77
2018-06-09T04:13:48.574Z,18.82
2018-06-09T04:16:17.224Z,18.82
2018-06-09T04:18:45.862Z,18.82
2018-06-09T04:21:14.485Z,18.85
2018-06-09T04:23:43.093Z,18.85
2018-06-09T04:26:12.623Z,18.89
2018-06-09T04:28:41.236Z,19.07
2018-06-09T04:31:09.820Z,19.11
2018-06-09T04:33:38.426Z,19.14
2018-06-09T04:36:07.079Z,19.27
2018-06-09T04:38:35.711Z,19.27
2018-06-09T04:41:04.387Z,19.31
2018-06-09T04:43:32.995Z,19.47
2018-06-09T04:46:01.712Z,19.61
2018-06-09T04:48:30.328Z,19.74
2018-06-09T04:50:58.959Z,19.81
2018-06-09T04:53:27.659Z,19.88
2018-06-09T04:55:56.290Z,19.94
2018-06-09T04:58:24.954Z,20.03
2018-06-09T05:00:53.559Z,19.93
2018-06-09T05:03:22.182Z,19.91
2018-06-09T05:05:50.804Z,19.92
2018-06-09T05:08:19.410Z,19.98
2018-06-09T05:10:48.082Z,20.05
2018-06-09T05:13:16.679Z,20.07
2018-06-09T05:15:45.298Z,20.20
2018-06-09T05:18:14.066Z,20.24
2018-06-09T05:20:42.673Z,20.35
2018-06-09T05:23:11.290Z,20.44
2018-06-09T05:25:39.954Z,20.55
2018-06-09T05:28:08.724Z,20.76
2018-06-09T05:30:37.314Z,20.78
2018-06-09T05:33:05.983Z,20.91
2018-06-09T05:35:34.587Z,21.08
2018-06-09T05:38:03.202Z,21.27
2018-06-09T05:40:31.855Z,21.40
2018-06-09T05:43:00.500Z,21.59
2018-06-09T05:45:29.121Z,21.81
2018-06-09T05:47:57.790Z,21.87
2018-06-09T05:50:26.439Z,21.97
2018-06-09T05:52:55.044Z,22.08
2018-06-09T05:55:23.660Z,22.10
2018-06-09T05:57:52.313Z,22.20
2018-06-09T06:00:20.959Z,22.15
2018-06-09T06:02:49.647Z,22.22
2018-06-09T06:05:18.299Z,22.37
2018-06-09T06:07:46.950Z,22.46
2018-06-09T06:10:15.585Z,22.53
2018-06-09T06:12:44.314Z,22.69
2018-06-09T06:15:13.019Z,22.55
2018-06-09T06:17:41.771Z,22.51
2018-06-09T06:20:10.547Z,22.37
2018-06-09T06:22:39.168Z,22.47
2018-06-09T06:25:07.822Z,22.62
2018-06-09T06:27:37.030Z,22.76
2018-06-09T06:30:05.682Z,22.92
2018-06-09T06:32:34.326Z,22.99
2018-06-09T06:35:02.965Z,22.99
2018-06-09T06:37:31.646Z,23.16
2018-06-09T06:40:00.291Z,23.19
2018-06-09T06:42:28.918Z,23.26
2018-06-09T06:44:58.189Z,23.13
2018-06-09T06:47:26.856Z,23.26
2018-06-09T06:49:55.490Z,23.40
2018-06-09T06:52:24.090Z,23.56
2018-06-09T06:54:52.751Z,23.64
2018-06-09T06:57:21.427Z,23.62
2018-06-09T06:59:50.027Z,23.68
2018-06-09T07:02:18.623Z,23.69
2018-06-09T07:04:47.238Z,23.78
2018-06-09T07:07:15.878Z,23.93
2018-06-09T07:09:44.510Z,23.97
2018-06-09T07:12:13.173Z,24.11
2018-06-09T07:14:42.543Z,24.08
2018-06-09T07:17:12.290Z,24.31
2018-06-09T07:19:40.941Z,24.30
2018-06-09T07:22:09.605Z,24.54
2018-06-09T07:24:38.251Z,24.64
2018-06-09T07:27:06.871Z,24.66
2018-06-09T07:29:35.531Z,24.40
2018-06-09T07:32:04.214Z,24.78
2018-06-09T07:34:32.863Z,25.18
2018-06-09T07:37:01.555Z,25.24
2018-06-09T07:39:30.211Z,25.74
2018-06-09T07:41:58.835Z,25.98
2018-06-09T07:44:27.591Z,26.18
2018-06-09T07:46:56.469Z,26.10
2018-06-09T07:49:25.342Z,26.21
2018-06-09T07:51:54.003Z,26.47
2018-06-09T07:54:22.679Z,26.41
2018-06-09T07:56:51.355Z,26.44
2018-06-09T07:59:20.037Z,26.53
2018-06-09T08:01:48.748Z,26.29
2018-06-09T08:04:17.407Z,26.52
2018-06-09T08:06:46.153Z,26.33
2018-06-09T08:09:14.823Z,25.97
2018-06-09T08:11:43.466Z,25.72
2018-06-09T08:14:12.133Z,25.85
2018-06-09T08:16:40.798Z,26.23
2018-06-09T08:19:09.563Z,25.83
2018-06-09T08:21:38.215Z,25.98
2018-06-09T08:24:06.981Z,25.90
2018-06-09T08:26:35.658Z,25.99
2018-06-09T08:29:04.436Z,25.99
2018-06-09T08:31:33.074Z,25.85
2018-06-09T08:34:01.762Z,25.84
2018-06-09T08:36:30.466Z,26.13
2018-06-09T08:38:59.132Z,26.27
2018-06-09T08:41:27.839Z,26.50
2018-06-09T08:43:56.551Z,26.31
2018-06-09T08:46:25.240Z,26.38
2018-06-09T08:48:53.855Z,26.35
2018-06-09T08:51:22.514Z,26.46
2018-06-09T08:53:51.144Z,26.41
2018-06-09T08:56:19.812Z,26.51
2018-06-09T08:58:48.622Z,26.65
2018-06-09T09:01:17.315Z,26.90
2018-06-09T09:03:46.097Z,26.84
2018-06-09T09:06:15.306Z,26.77
2018-06-09T09:08:44.002Z,27.15
2018-06-09T09:11:12.676Z,27.15
2018-06-09T09:13:41.356Z,27.17
2018-06-09T09:16:10.016Z,27.30
2018-06-09T09:18:38.678Z,27.34
2018-06-09T09:21:07.355Z,27.77
2018-06-09T09:23:36.014Z,28.26
2018-06-09T09:26:05.280Z,28.88
2018-06-09T09:28:33.923Z,29.33
2018-06-09T09:31:02.540Z,29.39
2018-06-09T09:33:31.176Z,29.49
2018-06-09T09:35:59.984Z,29.86
2018-06-09T09:38:28.661Z,30.04
2018-06-09T09:40:57.346Z,30.30
2018-06-09T09:43:26.009Z,30.37
2018-06-09T09:45:54.663Z,30.28
2018-06-09T09:48:23.318Z,30.56
2018-06-09T09:50:52.019Z,30.65
2018-06-09T09:53:20.684Z,30.51
2018-06-09T09:55:49.356Z,30.29
2018-06-09T09:58:18.051Z,30.33
2018-06-09T10:00:46.788Z,30.42
2018-06-09T10:03:15.415Z,30.27
2018-06-09T10:05:44.135Z,29.96
2018-06-09T10:08:12.787Z,29.83
2018-06-09T10:10:41.410Z,29.52
2018-06-09T10:13:10.074Z,29.38
2018-06-09T10:15:38.809Z,29.36
2018-06-09T10:18:07.428Z,29.16
2018-06-09T10:20:36.337Z,29.06
2018-06-09T10:23:04.996Z,29.03
2018-06-09T10:25:33.648Z,28.88
2018-06-09T10:28:02.332Z,28.72
2018-06-09T10:30:30.990Z,28.64
2018-06-09T10:33:00.212Z,28.74
2018-06-09T10:35:28.915Z,28.68
2018-06-09T10:37:57.559Z,28.58
2018-06-09T10:40:26.215Z,28.58
2018-06-09T10:42:54.833Z,28.62
2018-06-09T10:45:23.540Z,28.68
2018-06-09T10:47:52.155Z,28.67
2018-06-09T10:50:20.803Z,28.40
2018-06-09T10:52:49.422Z,28.21
2018-06-09T10:55:18.085Z,28.13
2018-06-09T10:57:46.712Z,27.98
2018-06-09T11:00:15.375Z,28.12
2018-06-09T11:02:44.104Z,28.28
2018-06-09T11:05:12.787Z,28.55
2018-06-09T11:07:41.441Z,28.56
2018-06-09T11:10:10.126Z,28.74
2018-06-09T11:12:38.768Z,28.79
2018-06-09T11:15:07.459Z,28.84
2018-06-09T11:17:36.114Z,29.17
2018-06-09T11:20:04.863Z,29.38
2018-06-09T11:22:33.626Z,29.49
2018-06-09T11:25:02.646Z,29.42
2018-06-09T11:27:31.310Z,29.34
2018-06-09T11:29:59.916Z,29.42
2018-06-09T11:32:28.570Z,29.52
2018-06-09T11:34:57.195Z,29.87
2018-06-09T11:37:25.807Z,29.93
2018-06-09T11:39:54.423Z,30.05
2018-06-09T11:42:23.038Z,29.97
2018-06-09T11:44:51.622Z,29.93
2018-06-09T11:47:20.254Z,29.86
2018-06-09T11:49:48.835Z,30.04
2018-06-09T11:52:17.530Z,30.05
2018-06-09T11:54:46.154Z,29.88
2018-06-09T11:57:14.826Z,29.81
2018-06-09T11:59:43.450Z,29.77
2018-06-09T12:02:12.050Z,29.56
2018-06-09T12:04:41.347Z,29.49
2018-06-09T12:07:09.964Z,29.37
2018-06-09T12:09:38.566Z,29.01
2018-06-09T12:12:07.208Z,28.94
2018-06-09T12:14:35.850Z,28.82
2018-06-09T12:17:04.669Z,28.80
2018-06-09T12:19:33.295Z,28.89
2018-06-09T12:22:01.970Z,29.03
2018-06-09T12:24:30.600Z,29.10
2018-06-09T12:26:59.179Z,29.38
2018-06-09T12:29:27.837Z,29.52
2018-06-09T12:31:56.493Z,29.52
2018-06-09T12:34:25.150Z,29.63
2018-06-09T12:36:53.849Z,29.84
2018-06-09T12:39:22.526Z,29.95
2018-06-09T12:41:51.200Z,30.39
2018-06-09T12:44:19.891Z,30.48
2018-06-09T12:46:48.530Z,30.57
2018-06-09T12:49:17.175Z,30.59
2018-06-09T12:51:45.803Z,30.57
2018-06-09T12:54:14.416Z,30.57
2018-06-09T12:56:43.007Z,30.90
2018-06-09T12:59:12.299Z,31.01
2018-06-09T13:01:40.903Z,30.89
2018-06-09T13:04:09.468Z,30.90
2018-06-09T13:06:38.182Z,31.05
2018-06-09T13:09:07.778Z,31.15
2018-06-09T13:11:36.374Z,30.88
2018-06-09T13:14:05.027Z,30.98
2018-06-09T13:16:33.613Z,31.24
2018-06-09T13:19:02.730Z,31.22
2018-06-09T13:21:31.309Z,31.52
2018-06-09T13:23:59.894Z,31.69
2018-06-09T13:26:28.556Z,31.66
2018-06-09T13:28:57.254Z,31.52
2018-06-09T13:31:26.025Z,31.02
2018-06-09T13:33:54.725Z,30.96
2018-06-09T13:36:23.510Z,30.89
2018-06-09T13:38:52.224Z,30.93
2018-06-09T13:41:20.824Z,30.99
2018-06-09T13:43:49.432Z,31.15
2018-06-09T13:46:18.046Z,31.41
2018-06-09T13:48:47.273Z,31.16
2018-06-09T13:51:15.923Z,31.36
2018-06-09T13:53:44.545Z,31.65
2018-06-09T13:56:13.165Z,31.36
2018-06-09T13:58:42.077Z,31.17
2018-06-09T14:01:10.730Z,31.41
2018-06-09T14:03:39.287Z,31.43
2018-06-09T14:06:08.584Z,30.58
2018-06-09T14:08:37.169Z,31.09
2018-06-09T14:11:06.587Z,31.77
2018-06-09T14:13:35.204Z,31.61
2018-06-09T14:16:03.858Z,31.92
2018-06-09T14:18:32.560Z,33.18
2018-06-09T14:21:01.852Z,33.84
2018-06-09T14:23:30.609Z,34.02
2018-06-09T14:25:59.311Z,34.17
2018-06-09T14:28:28.052Z,34.61
2018-06-09T14:30:56.731Z,35.02
2018-06-09T14:33:25.425Z,35.45
2018-06-09T14:35:54.161Z,35.69
2018-06-09T14:38:22.756Z,35.86
2018-06-09T14:40:51.326Z,35.76
2018-06-09T14:43:19.949Z,35.45
2018-06-09T14:45:48.575Z,35.29
2018-06-09T14:48:17.221Z,35.21
2018-06-09T14:50:45.881Z,34.74
2018-06-09T14:53:14.492Z,34.74
2018-06-09T14:55:43.106Z,34.15
2018-06-09T14:58:11.757Z,34.35
2018-06-09T15:00:40.401Z,35.02
2018-06-09T15:03:09.070Z,35.91
2018-06-09T15:05:37.751Z,35.96
2018-06-09T15:08:06.508Z,35.48
2018-06-09T15:10:35.083Z,36.03
2018-06-09T15:13:03.879Z,36.99
2018-06-09T15:15:32.530Z,37.40
2018-06-09T15:18:01.242Z,37.52
2018-06-09T15:20:29.943Z,36.89
2018-06-09T15:22:58.667Z,36.45
2018-06-09T15:25:27.375Z,36.20
2018-06-09T15:27:56.070Z,36.39
2018-06-09T15:30:24.936Z,35.97
2018-06-09T15:32:53.539Z,36.22
2018-06-09T15:35:22.218Z,36.18
2018-06-09T15:37:50.870Z,36.29
2018-06-09T15:40:19.484Z,36.47
2018-06-09T15:42:48.141Z,36.91
2018-06-09T15:45:16.801Z,36.95
2018-06-09T15:47:45.460Z,36.85
2018-06-09T15:50:14.198Z,37.13
2018-06-09T15:52:42.938Z,37.53
2018-06-09T15:55:11.586Z,37.70
2018-06-09T15:57:40.225Z,38.23
2018-06-09T16:00:08.935Z,39.20
2018-06-09T16:02:37.663Z,40.21
2018-06-09T16:05:06.299Z,40.94
2018-06-09T16:07:35.039Z,41.49
2018-06-09T16:10:03.733Z,42.31
2018-06-09T16:12:32.682Z,43.36
2018-06-09T16:15:01.383Z,43.52
2018-06-09T16:17:30.018Z,42.35
2018-06-09T16:19:58.679Z,41.56
2018-06-09T16:22:27.407Z,41.55
2018-06-09T16:24:56.078Z,42.28
2018-06-09T16:27:24.743Z,42.79
2018-06-09T16:29:53.404Z,42.62
2018-06-09T16:32:22.017Z,42.26
2018-06-09T16:34:51.391Z,42.24
2018-06-09T16:37:19.943Z,42.88
2018-06-09T16:39:50.454Z,43.42
2018-06-09T16:42:19.071Z,43.92
2018-06-09T16:44:47.928Z,43.70
2018-06-09T16:47:18.048Z,43.02
2018-06-09T16:49:46.743Z,43.00
2018-06-09T16:52:15.411Z,42.37
2018-06-09T16:54:44.404Z,42.64
2018-06-09T16:57:16.026Z,42.98
2018-06-09T16:59:44.770Z,42.77
2018-06-09T17:02:13.942Z,42.41
2018-06-09T17:04:42.598Z,42.41
2018-06-09T17:10:03.466Z,42.49
2018-06-09T17:12:32.858Z,42.10
2018-06-09T17:15:01.480Z,42.09
2018-06-09T17:17:30.121Z,41.74
2018-06-09T17:19:58.811Z,41.26
2018-06-09T17:22:27.528Z,40.98
2018-06-09T17:24:56.103Z,40.04
2018-06-09T17:27:24.763Z,39.51
2018-06-09T17:29:54.174Z,38.80
2018-06-09T17:32:22.839Z,38.91
2018-06-09T17:34:51.546Z,38.56
2018-06-09T17:37:20.756Z,38.34
2018-06-09T17:39:49.742Z,37.93
2018-06-09T17:42:18.344Z,37.95
2018-06-09T17:44:46.974Z,37.52
2018-06-09T17:47:15.570Z,37.09
2018-06-09T17:49:44.217Z,36.76
2018-06-09T17:52:12.861Z,36.40
2018-06-09T17:54:41.573Z,35.96
2018-06-09T17:57:10.315Z,35.70
2018-06-09T17:59:38.941Z,35.19
2018-06-09T18:02:07.609Z,34.29
2018-06-09T18:04:36.268Z,33.03
2018-06-09T18:07:05.026Z,31.59
2018-06-09T18:09:33.685Z,30.69
2018-06-09T18:12:02.366Z,30.04
2018-06-09T18:14:37.617Z,29.44
2018-06-09T18:17:06.711Z,28.86
2018-06-09T18:19:35.326Z,28.35
2018-06-09T18:22:03.970Z,27.97
2018-06-09T18:24:32.640Z,27.81
2018-06-09T18:27:01.245Z,27.46
2018-06-09T18:29:29.884Z,27.05
2018-06-09T18:31:58.491Z,26.70
2018-06-09T18:34:27.138Z,26.40
2018-06-09T18:36:55.798Z,26.09
2018-06-09T18:39:24.414Z,25.81
2018-06-09T18:41:52.990Z,25.60
2018-06-09T18:44:21.649Z,25.44
2018-06-09T18:46:50.293Z,25.25
2018-06-09T18:49:18.939Z,25.09
2018-06-09T18:51:47.622Z,24.93
2018-06-09T18:54:16.226Z,24.76
2018-06-09T18:56:44.895Z,24.62
2018-06-09T18:59:13.573Z,24.45
2018-06-09T19:01:42.205Z,24.35
2018-06-09T19:04:10.802Z,24.27
2018-06-09T19:06:39.447Z,24.22
2018-06-09T19:09:09.045Z,24.12
2018-06-09T19:11:37.658Z,24.03
2018-06-09T19:14:06.666Z,23.96
2018-06-09T19:16:35.894Z,23.78
2018-06-09T19:19:04.904Z,23.68
2018-06-09T19:21:33.590Z,23.63
2018-06-09T19:24:02.228Z,23.55
2018-06-09T19:26:30.893Z,23.51
2018-06-09T19:28:59.505Z,23.41
2018-06-09T19:31:28.222Z,23.27
2018-06-09T19:33:56.846Z,23.19
2018-06-09T19:36:26.900Z,23.20
2018-06-09T19:38:55.534Z,23.23
2018-06-09T19:41:24.150Z,23.21
2018-06-09T19:43:52.791Z,23.21
2018-06-09T19:46:21.400Z,23.13
2018-06-09T19:48:50.018Z,23.07
2018-06-09T19:51:18.630Z,23.05
2018-06-09T19:53:47.286Z,23.06
2018-06-09T19:56:16.645Z,23.00
2018-06-09T19:58:45.812Z,22.95
2018-06-09T20:01:14.542Z,22.81
2018-06-09T20:03:43.194Z,22.64
2018-06-09T20:06:12.551Z,22.48
2018-06-09T20:08:44.065Z,22.35
2018-06-09T20:11:12.832Z,22.23
2018-06-09T20:13:47.624Z,22.13
2018-06-09T20:16:16.446Z,22.08
2018-06-09T20:18:45.063Z,22.02
2018-06-09T20:21:14.416Z,21.96
2018-06-09T20:23:43.418Z,21.92
2018-06-09T20:26:14.364Z,21.88
2018-06-09T20:28:43.256Z,21.84
2018-06-09T20:31:11.939Z,21.78
2018-06-09T20:33:41.062Z,21.69
2018-06-09T20:36:12.801Z,21.66
2018-06-09T20:38:42.063Z,21.62
2018-06-09T20:41:11.200Z,21.57
2018-06-09T20:43:40.007Z,21.54
2018-06-09T20:46:08.706Z,21.52
2018-06-09T20:48:38.579Z,21.52
2018-06-09T20:51:07.325Z,21.49
2018-06-09T20:53:36.019Z,21.52
2018-06-09T20:56:04.687Z,21.53
2018-06-09T20:58:39.656Z,21.48
2018-06-09T21:01:08.350Z,21.44
2018-06-09T21:03:37.170Z,21.48
2018-06-09T21:06:07.408Z,21.51
2018-06-09T21:08:42.735Z,21.55
2018-06-09T21:11:11.851Z,21.59
2018-06-09T21:13:40.558Z,21.51
2018-06-09T21:16:09.245Z,21.43
2018-06-09T21:18:38.185Z,21.39
2018-06-09T21:21:06.939Z,21.34
2018-06-09T21:23:35.870Z,21.30
2018-06-09T21:26:10.717Z,21.29
2018-06-09T21:28:45.824Z,21.27
2018-06-09T21:31:18.669Z,21.24
2018-06-09T21:34:03.441Z,21.33
2018-06-09T21:36:37.080Z,21.37
2018-06-09T21:39:13.699Z,21.40
2018-06-09T21:41:45.177Z,21.41
2018-06-09T21:44:15.170Z,21.41
2018-06-09T21:46:50.043Z,21.36
2018-06-09T21:49:19.005Z,21.30
2018-06-09T21:51:47.602Z,21.26
2018-06-09T21:54:16.215Z,21.22
2018-06-09T21:56:44.864Z,21.16
2018-06-09T21:59:13.519Z,21.13
2018-06-09T22:01:42.269Z,21.17
2018-06-09T22:04:10.915Z,21.20
2018-06-09T22:06:39.597Z,21.14
2018-06-09T22:09:08.296Z,21.07
2018-06-09T22:11:36.929Z,21.00
2018-06-09T22:14:05.998Z,20.99
2018-06-09T22:16:35.061Z,20.96
2018-06-09T22:19:03.683Z,20.99
2018-06-09T22:21:32.328Z,21.09
2018-06-09T22:24:01.059Z,21.10
2018-06-09T22:26:29.837Z,21.17
2018-06-09T22:28:58.486Z,21.09
2018-06-09T22:31:27.327Z,21.01
2018-06-09T22:33:55.995Z,20.96
2018-06-09T22:36:24.867Z,20.94
2018-06-09T22:38:53.514Z,20.96
2018-06-09T22:41:22.137Z,20.91
2018-06-09T22:43:50.843Z,20.87
2018-06-09T22:46:22.375Z,20.81
2018-06-09T22:48:51.001Z,20.76
2018-06-09T22:51:19.618Z,20.70
2018-06-09T22:53:48.258Z,20.64
2018-06-09T22:56:16.862Z,20.58
2018-06-09T22:58:45.493Z,20.52
2018-06-09T23:01:14.115Z,20.46
2018-06-09T23:03:42.729Z,20.41
2018-06-09T23:06:11.423Z,20.37
2018-06-09T23:08:40.367Z,20.34
2018-06-09T23:11:09.045Z,20.28
2018-06-09T23:13:37.688Z,20.26
2018-06-09T23:16:06.444Z,20.23
2018-06-09T23:18:35.164Z,20.19
2018-06-09T23:21:03.891Z,20.16
2018-06-09T23:23:32.527Z,20.16
2018-06-09T23:26:01.151Z,20.12
2018-06-09T23:28:29.786Z,20.08
2018-06-09T23:30:58.494Z,20.05
2018-06-09T23:33:27.137Z,20.03
2018-06-09T23:35:55.819Z,20.03
2018-06-09T23:38:24.404Z,19.99
2018-06-09T23:40:53.091Z,19.95
2018-06-09T23:43:21.771Z,19.90
2018-06-09T23:45:50.411Z,19.85
2018-06-09T23:48:19.145Z,19.81
2018-06-09T23:50:47.826Z,19.79
2018-06-09T23:53:16.423Z,19.84
2018-06-09T23:55:45.048Z,19.82
2018-06-09T23:58:13.666Z,19.77
